sensor_id;sensor_type;location;lat;lon;timestamp;P1;durP1;ratioP1;P2;durP2;ratioP2
75554;SDS011;64138;53.124;18.032;2022-10-16T00:00:40;22.40;;;15.10;;
75554;SDS011;64138;53.124;18.032;2022-10-16T00:03:27;26.00;;;16.80;;
75554;SDS011;64138;53.124;18.032;2022-10-16T00:05:54;28.30;;;16.60;;
75554;SDS011;64138;53.124;18.032;2022-10-16T00:08:25;23.20;;;15.30;;
75554;SDS011;64138;53.124;18.032;2022-10-16T00:10:52;21.30;;;14.30;;
75554;SDS011;64138;53.124;18.032;2022-10-16T00:13:18;21.90;;;13.70;;
75554;SDS011;64138;53.124;18.032;2022-10-16T00:15:46;27.30;;;17.70;;
75554;SDS011;64138;53.124;18.032;2022-10-16T00:18:13;23.90;;;15.70;;
75554;SDS011;64138;53.124;18.032;2022-10-16T00:20:40;25.70;;;15.70;;
75554;SDS011;64138;53.124;18.032;2022-10-16T00:23:07;25.50;;;16.00;;
75554;SDS011;64138;53.124;18.032;2022-10-16T00:25:34;24.40;;;14.90;;
75554;SDS011;64138;53.124;18.032;2022-10-16T00:28:01;21.90;;;14.20;;
75554;SDS011;64138;53.124;18.032;2022-10-16T00:30:27;23.00;;;14.90;;
75554;SDS011;64138;53.124;18.032;2022-10-16T00:32:55;23.10;;;14.70;;
75554;SDS011;64138;53.124;18.032;2022-10-16T00:35:22;25.90;;;17.00;;
75554;SDS011;64138;53.124;18.032;2022-10-16T00:37:49;25.70;;;17.30;;
75554;SDS011;64138;53.124;18.032;2022-10-16T00:40:16;20.60;;;12.50;;
75554;SDS011;64138;53.124;18.032;2022-10-16T00:42:42;25.60;;;15.70;;
75554;SDS011;64138;53.124;18.032;2022-10-16T00:45:09;17.30;;;10.70;;
75554;SDS011;64138;53.124;18.032;2022-10-16T00:47:37;20.70;;;12.90;;
75554;SDS011;64138;53.124;18.032;2022-10-16T00:50:13;21.10;;;13.30;;
75554;SDS011;64138;53.124;18.032;2022-10-16T00:52:46;21.90;;;12.80;;
75554;SDS011;64138;53.124;18.032;2022-10-16T00:55:13;21.50;;;13.90;;
75554;SDS011;64138;53.124;18.032;2022-10-16T00:57:40;22.70;;;14.40;;
75554;SDS011;64138;53.124;18.032;2022-10-16T01:00:09;15.80;;;9.00;;
75554;SDS011;64138;53.124;18.032;2022-10-16T01:02:37;25.50;;;14.90;;
75554;SDS011;64138;53.124;18.032;2022-10-16T01:05:04;27.40;;;15.30;;
75554;SDS011;64138;53.124;18.032;2022-10-16T01:10:27;25.00;;;15.80;;
75554;SDS011;64138;53.124;18.032;2022-10-16T01:13:09;25.90;;;15.50;;
75554;SDS011;64138;53.124;18.032;2022-10-16T01:15:42;26.80;;;18.10;;
75554;SDS011;64138;53.124;18.032;2022-10-16T01:21:04;27.50;;;17.30;;
75554;SDS011;64138;53.124;18.032;2022-10-16T01:26:31;18.90;;;12.50;;
75554;SDS011;64138;53.124;18.032;2022-10-16T01:31:57;18.80;;;10.50;;
75554;SDS011;64138;53.124;18.032;2022-10-16T01:34:37;22.50;;;14.60;;
75554;SDS011;64138;53.124;18.032;2022-10-16T01:37:14;20.20;;;12.60;;
75554;SDS011;64138;53.124;18.032;2022-10-16T01:39:44;21.40;;;14.50;;
75554;SDS011;64138;53.124;18.032;2022-10-16T01:42:16;21.60;;;13.50;;
75554;SDS011;64138;53.124;18.032;2022-10-16T01:44:48;17.90;;;10.30;;
75554;SDS011;64138;53.124;18.032;2022-10-16T01:47:16;22.00;;;13.50;;
75554;SDS011;64138;53.124;18.032;2022-10-16T01:49:43;22.40;;;13.90;;
75554;SDS011;64138;53.124;18.032;2022-10-16T01:52:11;24.60;;;14.20;;
75554;SDS011;64138;53.124;18.032;2022-10-16T01:54:41;27.60;;;16.60;;
75554;SDS011;64138;53.124;18.032;2022-10-16T01:57:10;21.00;;;13.60;;
75554;SDS011;64138;53.124;18.032;2022-10-16T01:59:39;22.30;;;13.30;;
75554;SDS011;64138;53.124;18.032;2022-10-16T02:02:09;25.40;;;15.80;;
75554;SDS011;64138;53.124;18.032;2022-10-16T02:04:38;20.90;;;13.50;;
75554;SDS011;64138;53.124;18.032;2022-10-16T02:07:07;21.10;;;14.30;;
75554;SDS011;64138;53.124;18.032;2022-10-16T02:09:34;28.20;;;17.40;;
75554;SDS011;64138;53.124;18.032;2022-10-16T02:12:03;22.50;;;14.90;;
75554;SDS011;64138;53.124;18.032;2022-10-16T02:14:42;26.10;;;16.50;;
75554;SDS011;64138;53.124;18.032;2022-10-16T02:17:12;21.00;;;13.30;;
75554;SDS011;64138;53.124;18.032;2022-10-16T02:19:41;21.70;;;13.70;;
75554;SDS011;64138;53.124;18.032;2022-10-16T02:22:09;18.30;;;11.60;;
75554;SDS011;64138;53.124;18.032;2022-10-16T02:27:23;22.70;;;15.10;;
75554;SDS011;64138;53.124;18.032;2022-10-16T02:30:48;23.50;;;14.40;;
75554;SDS011;64138;53.124;18.032;2022-10-16T02:32:57;18.20;;;11.70;;
75554;SDS011;64138;53.124;18.032;2022-10-16T02:35:26;21.30;;;13.10;;
75554;SDS011;64138;53.124;18.032;2022-10-16T02:37:54;22.80;;;13.60;;
75554;SDS011;64138;53.124;18.032;2022-10-16T02:40:21;20.30;;;11.70;;
75554;SDS011;64138;53.124;18.032;2022-10-16T02:42:50;19.80;;;13.20;;
75554;SDS011;64138;53.124;18.032;2022-10-16T02:45:18;26.20;;;15.90;;
75554;SDS011;64138;53.124;18.032;2022-10-16T02:47:45;21.10;;;13.10;;
75554;SDS011;64138;53.124;18.032;2022-10-16T02:50:12;20.00;;;12.70;;
75554;SDS011;64138;53.124;18.032;2022-10-16T02:52:39;20.60;;;13.40;;
75554;SDS011;64138;53.124;18.032;2022-10-16T02:55:06;20.70;;;13.20;;
75554;SDS011;64138;53.124;18.032;2022-10-16T02:57:33;20.50;;;13.50;;
75554;SDS011;64138;53.124;18.032;2022-10-16T02:59:59;20.80;;;13.10;;
75554;SDS011;64138;53.124;18.032;2022-10-16T03:02:26;20.90;;;12.70;;
75554;SDS011;64138;53.124;18.032;2022-10-16T03:04:53;23.40;;;13.20;;
75554;SDS011;64138;53.124;18.032;2022-10-16T03:07:19;22.30;;;13.70;;
75554;SDS011;64138;53.124;18.032;2022-10-16T03:09:46;25.00;;;15.40;;
75554;SDS011;64138;53.124;18.032;2022-10-16T03:12:13;22.90;;;15.10;;
75554;SDS011;64138;53.124;18.032;2022-10-16T03:14:39;20.00;;;12.70;;
75554;SDS011;64138;53.124;18.032;2022-10-16T03:17:06;20.70;;;12.60;;
75554;SDS011;64138;53.124;18.032;2022-10-16T03:19:33;21.20;;;13.10;;
75554;SDS011;64138;53.124;18.032;2022-10-16T03:22:01;18.10;;;11.20;;
75554;SDS011;64138;53.124;18.032;2022-10-16T03:24:28;25.80;;;14.80;;
75554;SDS011;64138;53.124;18.032;2022-10-16T03:26:54;21.30;;;12.90;;
75554;SDS011;64138;53.124;18.032;2022-10-16T03:29:21;20.40;;;13.50;;
75554;SDS011;64138;53.124;18.032;2022-10-16T03:31:47;22.30;;;13.90;;
75554;SDS011;64138;53.124;18.032;2022-10-16T03:34:15;22.70;;;13.20;;
75554;SDS011;64138;53.124;18.032;2022-10-16T03:36:42;18.60;;;11.20;;
75554;SDS011;64138;53.124;18.032;2022-10-16T03:39:08;22.50;;;13.60;;
75554;SDS011;64138;53.124;18.032;2022-10-16T03:41:35;19.00;;;11.50;;
75554;SDS011;64138;53.124;18.032;2022-10-16T03:44:02;19.60;;;12.60;;
75554;SDS011;64138;53.124;18.032;2022-10-16T03:46:28;21.70;;;12.80;;
75554;SDS011;64138;53.124;18.032;2022-10-16T03:48:55;20.10;;;13.40;;
75554;SDS011;64138;53.124;18.032;2022-10-16T03:51:22;18.00;;;10.30;;
75554;SDS011;64138;53.124;18.032;2022-10-16T03:53:48;16.90;;;10.50;;
75554;SDS011;64138;53.124;18.032;2022-10-16T03:56:15;19.90;;;13.10;;
75554;SDS011;64138;53.124;18.032;2022-10-16T03:58:42;19.40;;;12.10;;
75554;SDS011;64138;53.124;18.032;2022-10-16T04:01:08;18.50;;;11.40;;
75554;SDS011;64138;53.124;18.032;2022-10-16T04:03:35;23.20;;;14.90;;
75554;SDS011;64138;53.124;18.032;2022-10-16T04:06:01;21.60;;;13.60;;
75554;SDS011;64138;53.124;18.032;2022-10-16T04:08:28;20.10;;;13.50;;
75554;SDS011;64138;53.124;18.032;2022-10-16T04:10:55;20.80;;;12.90;;
75554;SDS011;64138;53.124;18.032;2022-10-16T04:13:21;22.20;;;13.20;;
75554;SDS011;64138;53.124;18.032;2022-10-16T04:15:48;18.50;;;12.10;;
75554;SDS011;64138;53.124;18.032;2022-10-16T04:18:15;20.00;;;11.90;;
75554;SDS011;64138;53.124;18.032;2022-10-16T04:20:41;19.60;;;12.30;;
75554;SDS011;64138;53.124;18.032;2022-10-16T04:23:08;17.00;;;11.00;;
75554;SDS011;64138;53.124;18.032;2022-10-16T04:25:34;18.90;;;13.10;;
75554;SDS011;64138;53.124;18.032;2022-10-16T04:28:01;16.90;;;10.90;;
75554;SDS011;64138;53.124;18.032;2022-10-16T04:30:28;21.70;;;13.70;;
75554;SDS011;64138;53.124;18.032;2022-10-16T04:32:55;19.10;;;12.00;;
75554;SDS011;64138;53.124;18.032;2022-10-16T04:35:21;20.00;;;13.00;;
75554;SDS011;64138;53.124;18.032;2022-10-16T04:37:48;19.30;;;12.30;;
75554;SDS011;64138;53.124;18.032;2022-10-16T04:40:15;19.70;;;12.50;;
75554;SDS011;64138;53.124;18.032;2022-10-16T04:42:41;17.90;;;10.80;;
75554;SDS011;64138;53.124;18.032;2022-10-16T04:45:08;18.30;;;12.00;;
75554;SDS011;64138;53.124;18.032;2022-10-16T04:47:35;19.00;;;12.80;;
75554;SDS011;64138;53.124;18.032;2022-10-16T04:50:01;22.10;;;14.40;;
75554;SDS011;64138;53.124;18.032;2022-10-16T04:52:28;22.00;;;13.70;;
75554;SDS011;64138;53.124;18.032;2022-10-16T04:54:56;20.40;;;13.10;;
75554;SDS011;64138;53.124;18.032;2022-10-16T04:57:27;15.30;;;10.30;;
75554;SDS011;64138;53.124;18.032;2022-10-16T04:59:54;20.70;;;12.30;;
75554;SDS011;64138;53.124;18.032;2022-10-16T05:02:20;16.10;;;10.40;;
75554;SDS011;64138;53.124;18.032;2022-10-16T05:04:47;21.80;;;14.50;;
75554;SDS011;64138;53.124;18.032;2022-10-16T05:07:13;18.70;;;12.70;;
75554;SDS011;64138;53.124;18.032;2022-10-16T05:09:40;20.20;;;12.50;;
75554;SDS011;64138;53.124;18.032;2022-10-16T05:12:07;16.40;;;10.60;;
75554;SDS011;64138;53.124;18.032;2022-10-16T05:14:33;17.60;;;11.00;;
75554;SDS011;64138;53.124;18.032;2022-10-16T05:17:00;19.80;;;11.30;;
75554;SDS011;64138;53.124;18.032;2022-10-16T05:19:27;13.20;;;8.10;;
75554;SDS011;64138;53.124;18.032;2022-10-16T05:21:53;16.30;;;10.10;;
75554;SDS011;64138;53.124;18.032;2022-10-16T05:24:20;15.50;;;10.10;;
75554;SDS011;64138;53.124;18.032;2022-10-16T05:26:46;21.30;;;13.70;;
75554;SDS011;64138;53.124;18.032;2022-10-16T05:29:13;17.50;;;11.60;;
75554;SDS011;64138;53.124;18.032;2022-10-16T05:31:40;19.00;;;12.00;;
75554;SDS011;64138;53.124;18.032;2022-10-16T05:34:07;19.60;;;11.90;;
75554;SDS011;64138;53.124;18.032;2022-10-16T05:36:34;18.70;;;13.00;;
75554;SDS011;64138;53.124;18.032;2022-10-16T05:39:00;16.90;;;10.60;;
75554;SDS011;64138;53.124;18.032;2022-10-16T05:41:27;19.30;;;11.70;;
75554;SDS011;64138;53.124;18.032;2022-10-16T05:43:54;13.80;;;8.50;;
75554;SDS011;64138;53.124;18.032;2022-10-16T05:46:20;18.30;;;10.70;;
75554;SDS011;64138;53.124;18.032;2022-10-16T05:48:47;19.10;;;12.40;;
75554;SDS011;64138;53.124;18.032;2022-10-16T05:51:14;20.80;;;12.40;;
75554;SDS011;64138;53.124;18.032;2022-10-16T05:53:41;17.10;;;11.40;;
75554;SDS011;64138;53.124;18.032;2022-10-16T05:56:09;14.20;;;9.20;;
75554;SDS011;64138;53.124;18.032;2022-10-16T05:58:37;15.80;;;11.00;;
75554;SDS011;64138;53.124;18.032;2022-10-16T06:01:08;17.50;;;11.50;;
75554;SDS011;64138;53.124;18.032;2022-10-16T06:03:36;17.40;;;10.40;;
75554;SDS011;64138;53.124;18.032;2022-10-16T06:06:07;11.20;;;7.20;;
75554;SDS011;64138;53.124;18.032;2022-10-16T06:08:37;16.50;;;10.90;;
75554;SDS011;64138;53.124;18.032;2022-10-16T06:11:05;13.90;;;9.20;;
75554;SDS011;64138;53.124;18.032;2022-10-16T06:13:33;15.70;;;10.60;;
75554;SDS011;64138;53.124;18.032;2022-10-16T06:16:00;15.80;;;10.50;;
75554;SDS011;64138;53.124;18.032;2022-10-16T06:18:27;17.30;;;10.60;;
75554;SDS011;64138;53.124;18.032;2022-10-16T06:20:55;13.10;;;9.10;;
75554;SDS011;64138;53.124;18.032;2022-10-16T06:23:22;14.00;;;9.10;;
75554;SDS011;64138;53.124;18.032;2022-10-16T06:25:49;17.20;;;11.10;;
75554;SDS011;64138;53.124;18.032;2022-10-16T06:28:16;15.30;;;9.70;;
75554;SDS011;64138;53.124;18.032;2022-10-16T06:30:42;15.40;;;10.40;;
75554;SDS011;64138;53.124;18.032;2022-10-16T06:33:12;16.70;;;9.80;;
75554;SDS011;64138;53.124;18.032;2022-10-16T06:35:39;11.80;;;7.50;;
75554;SDS011;64138;53.124;18.032;2022-10-16T06:38:07;14.60;;;9.50;;
75554;SDS011;64138;53.124;18.032;2022-10-16T06:40:33;11.80;;;7.70;;
75554;SDS011;64138;53.124;18.032;2022-10-16T06:43:00;11.30;;;7.70;;
75554;SDS011;64138;53.124;18.032;2022-10-16T06:45:26;11.80;;;7.20;;
75554;SDS011;64138;53.124;18.032;2022-10-16T06:47:53;13.90;;;8.40;;
75554;SDS011;64138;53.124;18.032;2022-10-16T06:50:19;14.70;;;9.80;;
75554;SDS011;64138;53.124;18.032;2022-10-16T06:52:46;14.90;;;9.60;;
75554;SDS011;64138;53.124;18.032;2022-10-16T06:55:12;15.10;;;9.90;;
75554;SDS011;64138;53.124;18.032;2022-10-16T06:57:39;9.40;;;5.70;;
75554;SDS011;64138;53.124;18.032;2022-10-16T07:00:06;13.90;;;8.60;;
75554;SDS011;64138;53.124;18.032;2022-10-16T07:02:33;13.60;;;8.40;;
75554;SDS011;64138;53.124;18.032;2022-10-16T07:05:00;13.50;;;9.00;;
75554;SDS011;64138;53.124;18.032;2022-10-16T07:07:26;14.10;;;9.50;;
75554;SDS011;64138;53.124;18.032;2022-10-16T07:09:53;13.00;;;7.50;;
75554;SDS011;64138;53.124;18.032;2022-10-16T07:12:19;12.30;;;7.60;;
75554;SDS011;64138;53.124;18.032;2022-10-16T07:14:46;13.00;;;8.50;;
75554;SDS011;64138;53.124;18.032;2022-10-16T07:17:12;12.50;;;8.20;;
75554;SDS011;64138;53.124;18.032;2022-10-16T07:19:39;13.60;;;9.80;;
75554;SDS011;64138;53.124;18.032;2022-10-16T07:22:05;14.40;;;8.40;;
75554;SDS011;64138;53.124;18.032;2022-10-16T07:24:32;12.20;;;7.90;;
75554;SDS011;64138;53.124;18.032;2022-10-16T07:26:59;11.70;;;8.00;;
75554;SDS011;64138;53.124;18.032;2022-10-16T07:29:25;11.20;;;8.10;;
75554;SDS011;64138;53.124;18.032;2022-10-16T07:31:52;14.80;;;8.90;;
75554;SDS011;64138;53.124;18.032;2022-10-16T07:34:19;13.00;;;8.50;;
75554;SDS011;64138;53.124;18.032;2022-10-16T07:36:48;10.00;;;7.10;;
75554;SDS011;64138;53.124;18.032;2022-10-16T07:39:16;12.40;;;8.40;;
75554;SDS011;64138;53.124;18.032;2022-10-16T07:41:43;9.10;;;6.80;;
75554;SDS011;64138;53.124;18.032;2022-10-16T07:44:09;11.10;;;8.70;;
75554;SDS011;64138;53.124;18.032;2022-10-16T07:46:36;9.20;;;6.70;;
75554;SDS011;64138;53.124;18.032;2022-10-16T07:49:03;9.80;;;7.20;;
75554;SDS011;64138;53.124;18.032;2022-10-16T07:51:30;10.40;;;6.80;;
75554;SDS011;64138;53.124;18.032;2022-10-16T07:53:56;9.80;;;7.50;;
75554;SDS011;64138;53.124;18.032;2022-10-16T07:56:23;9.50;;;7.30;;
75554;SDS011;64138;53.124;18.032;2022-10-16T07:58:50;9.90;;;6.10;;
75554;SDS011;64138;53.124;18.032;2022-10-16T08:01:17;10.40;;;7.00;;
75554;SDS011;64138;53.124;18.032;2022-10-16T08:03:46;11.00;;;7.10;;
75554;SDS011;64138;53.124;18.032;2022-10-16T08:06:15;9.80;;;6.60;;
75554;SDS011;64138;53.124;18.032;2022-10-16T08:08:42;9.40;;;6.50;;
75554;SDS011;64138;53.124;18.032;2022-10-16T08:11:09;10.90;;;7.90;;
75554;SDS011;64138;53.124;18.032;2022-10-16T08:13:35;9.90;;;6.30;;
75554;SDS011;64138;53.124;18.032;2022-10-16T08:16:02;8.40;;;5.70;;
75554;SDS011;64138;53.124;18.032;2022-10-16T08:18:34;7.60;;;5.30;;
75554;SDS011;64138;53.124;18.032;2022-10-16T08:21:02;10.20;;;6.70;;
75554;SDS011;64138;53.124;18.032;2022-10-16T08:23:29;10.40;;;6.50;;
75554;SDS011;64138;53.124;18.032;2022-10-16T08:26:01;10.00;;;6.90;;
75554;SDS011;64138;53.124;18.032;2022-10-16T08:28:29;9.90;;;6.90;;
75554;SDS011;64138;53.124;18.032;2022-10-16T08:30:56;7.70;;;5.70;;
75554;SDS011;64138;53.124;18.032;2022-10-16T08:33:23;8.50;;;6.40;;
75554;SDS011;64138;53.124;18.032;2022-10-16T08:35:50;8.60;;;6.00;;
75554;SDS011;64138;53.124;18.032;2022-10-16T08:38:20;7.80;;;5.40;;
75554;SDS011;64138;53.124;18.032;2022-10-16T08:40:47;8.60;;;6.40;;
75554;SDS011;64138;53.124;18.032;2022-10-16T08:48:42;8.60;;;6.50;;
75554;SDS011;64138;53.124;18.032;2022-10-16T08:51:12;7.90;;;6.20;;
75554;SDS011;64138;53.124;18.032;2022-10-16T08:53:51;8.70;;;6.20;;
75554;SDS011;64138;53.124;18.032;2022-10-16T08:56:23;8.10;;;5.70;;
75554;SDS011;64138;53.124;18.032;2022-10-16T08:58:50;7.70;;;5.20;;
75554;SDS011;64138;53.124;18.032;2022-10-16T09:01:19;8.10;;;5.90;;
75554;SDS011;64138;53.124;18.032;2022-10-16T09:12:09;9.20;;;6.40;;
75554;SDS011;64138;53.124;18.032;2022-10-16T09:23:18;10.30;;;5.60;;
75554;SDS011;64138;53.124;18.032;2022-10-16T09:25:47;8.50;;;5.60;;
75554;SDS011;64138;53.124;18.032;2022-10-16T09:28:16;8.10;;;6.00;;
75554;SDS011;64138;53.124;18.032;2022-10-16T09:30:44;8.10;;;6.20;;
75554;SDS011;64138;53.124;18.032;2022-10-16T09:33:12;9.40;;;6.30;;
75554;SDS011;64138;53.124;18.032;2022-10-16T09:35:43;7.40;;;5.40;;
75554;SDS011;64138;53.124;18.032;2022-10-16T09:38:27;10.40;;;5.80;;
75554;SDS011;64138;53.124;18.032;2022-10-16T09:40:56;8.40;;;5.70;;
75554;SDS011;64138;53.124;18.032;2022-10-16T09:43:25;9.90;;;6.10;;
75554;SDS011;64138;53.124;18.032;2022-10-16T09:45:59;8.00;;;6.10;;
75554;SDS011;64138;53.124;18.032;2022-10-16T09:48:47;7.30;;;4.80;;
75554;SDS011;64138;53.124;18.032;2022-10-16T09:51:31;7.60;;;5.00;;
75554;SDS011;64138;53.124;18.032;2022-10-16T09:54:13;7.20;;;5.20;;
75554;SDS011;64138;53.124;18.032;2022-10-16T09:56:41;8.10;;;5.10;;
75554;SDS011;64138;53.124;18.032;2022-10-16T09:59:15;7.70;;;5.20;;
75554;SDS011;64138;53.124;18.032;2022-10-16T10:01:52;7.40;;;5.20;;
75554;SDS011;64138;53.124;18.032;2022-10-16T10:04:20;9.00;;;4.60;;
75554;SDS011;64138;53.124;18.032;2022-10-16T10:06:49;6.70;;;4.80;;
75554;SDS011;64138;53.124;18.032;2022-10-16T10:09:21;7.40;;;5.00;;
75554;SDS011;64138;53.124;18.032;2022-10-16T10:19:42;6.80;;;4.90;;
75554;SDS011;64138;53.124;18.032;2022-10-16T10:22:19;5.70;;;3.40;;
75554;SDS011;64138;53.124;18.032;2022-10-16T10:25:07;6.60;;;4.20;;
75554;SDS011;64138;53.124;18.032;2022-10-16T10:27:40;6.80;;;4.50;;
75554;SDS011;64138;53.124;18.032;2022-10-16T10:44:46;6.40;;;3.90;;
75554;SDS011;64138;53.124;18.032;2022-10-16T10:47:40;6.90;;;3.10;;
75554;SDS011;64138;53.124;18.032;2022-10-16T10:50:23;6.40;;;3.20;;
75554;SDS011;64138;53.124;18.032;2022-10-16T10:55:54;6.80;;;3.80;;
75554;SDS011;64138;53.124;18.032;2022-10-16T10:58:39;6.10;;;4.20;;
75554;SDS011;64138;53.124;18.032;2022-10-16T11:01:16;6.20;;;4.20;;
75554;SDS011;64138;53.124;18.032;2022-10-16T11:03:54;6.60;;;3.90;;
75554;SDS011;64138;53.124;18.032;2022-10-16T11:06:40;6.20;;;4.20;;
75554;SDS011;64138;53.124;18.032;2022-10-16T11:09:10;10.70;;;4.40;;
75554;SDS011;64138;53.124;18.032;2022-10-16T11:11:43;6.10;;;4.30;;
75554;SDS011;64138;53.124;18.032;2022-10-16T11:14:17;6.70;;;4.30;;
75554;SDS011;64138;53.124;18.032;2022-10-16T11:16:53;6.20;;;4.00;;
75554;SDS011;64138;53.124;18.032;2022-10-16T11:19:37;5.50;;;3.90;;
75554;SDS011;64138;53.124;18.032;2022-10-16T11:27:40;5.30;;;3.60;;
75554;SDS011;64138;53.124;18.032;2022-10-16T11:30:28;6.10;;;3.80;;
75554;SDS011;64138;53.124;18.032;2022-10-16T11:33:04;5.10;;;2.80;;
75554;SDS011;64138;53.124;18.032;2022-10-16T11:41:34;6.80;;;4.00;;
75554;SDS011;64138;53.124;18.032;2022-10-16T11:44:27;6.60;;;3.60;;
75554;SDS011;64138;53.124;18.032;2022-10-16T11:47:01;6.40;;;4.30;;
75554;SDS011;64138;53.124;18.032;2022-10-16T11:49:36;6.30;;;4.40;;
75554;SDS011;64138;53.124;18.032;2022-10-16T11:55:13;7.30;;;4.60;;
75554;SDS011;64138;53.124;18.032;2022-10-16T11:57:47;7.50;;;4.10;;
75554;SDS011;64138;53.124;18.032;2022-10-16T12:00:20;6.60;;;4.90;;
75554;SDS011;64138;53.124;18.032;2022-10-16T12:08:12;6.20;;;3.40;;
75554;SDS011;64138;53.124;18.032;2022-10-16T12:10:41;6.70;;;4.20;;
75554;SDS011;64138;53.124;18.032;2022-10-16T12:18:41;5.70;;;4.10;;
75554;SDS011;64138;53.124;18.032;2022-10-16T12:21:12;6.10;;;3.90;;
75554;SDS011;64138;53.124;18.032;2022-10-16T12:23:51;7.40;;;4.50;;
75554;SDS011;64138;53.124;18.032;2022-10-16T12:26:26;7.20;;;4.50;;
75554;SDS011;64138;53.124;18.032;2022-10-16T12:28:55;6.00;;;4.10;;
75554;SDS011;64138;53.124;18.032;2022-10-16T12:31:43;7.40;;;4.60;;
75554;SDS011;64138;53.124;18.032;2022-10-16T12:34:20;5.30;;;3.10;;
75554;SDS011;64138;53.124;18.032;2022-10-16T12:36:47;5.50;;;3.70;;
75554;SDS011;64138;53.124;18.032;2022-10-16T12:39:20;7.80;;;3.70;;
75554;SDS011;64138;53.124;18.032;2022-10-16T12:41:48;7.70;;;3.80;;
75554;SDS011;64138;53.124;18.032;2022-10-16T12:44:31;6.10;;;3.70;;
75554;SDS011;64138;53.124;18.032;2022-10-16T12:46:58;6.40;;;3.80;;
75554;SDS011;64138;53.124;18.032;2022-10-16T12:51:55;6.10;;;4.10;;
75554;SDS011;64138;53.124;18.032;2022-10-16T12:54:28;7.30;;;4.40;;
75554;SDS011;64138;53.124;18.032;2022-10-16T12:57:03;5.30;;;3.60;;
75554;SDS011;64138;53.124;18.032;2022-10-16T13:02:19;6.20;;;3.60;;
75554;SDS011;64138;53.124;18.032;2022-10-16T13:10:28;5.90;;;3.80;;
75554;SDS011;64138;53.124;18.032;2022-10-16T13:13:18;6.20;;;3.40;;
75554;SDS011;64138;53.124;18.032;2022-10-16T13:21:33;5.60;;;3.10;;
75554;SDS011;64138;53.124;18.032;2022-10-16T13:29:34;8.20;;;3.80;;
75554;SDS011;64138;53.124;18.032;2022-10-16T13:32:00;7.20;;;4.50;;
75554;SDS011;64138;53.124;18.032;2022-10-16T13:34:28;6.30;;;3.80;;
75554;SDS011;64138;53.124;18.032;2022-10-16T13:36:55;6.10;;;3.70;;
75554;SDS011;64138;53.124;18.032;2022-10-16T13:42:03;5.90;;;3.60;;
75554;SDS011;64138;53.124;18.032;2022-10-16T13:44:35;7.30;;;4.00;;
75554;SDS011;64138;53.124;18.032;2022-10-16T13:47:29;5.80;;;3.60;;
75554;SDS011;64138;53.124;18.032;2022-10-16T13:50:15;6.60;;;3.50;;
75554;SDS011;64138;53.124;18.032;2022-10-16T13:52:43;6.20;;;3.60;;
75554;SDS011;64138;53.124;18.032;2022-10-16T13:55:14;5.50;;;3.70;;
75554;SDS011;64138;53.124;18.032;2022-10-16T13:57:42;6.50;;;3.90;;
75554;SDS011;64138;53.124;18.032;2022-10-16T14:00:42;8.90;;;4.10;;
75554;SDS011;64138;53.124;18.032;2022-10-16T14:03:02;6.10;;;4.00;;
75554;SDS011;64138;53.124;18.032;2022-10-16T14:05:30;6.90;;;4.40;;
75554;SDS011;64138;53.124;18.032;2022-10-16T14:07:57;6.10;;;4.00;;
75554;SDS011;64138;53.124;18.032;2022-10-16T14:12:57;5.20;;;3.60;;
75554;SDS011;64138;53.124;18.032;2022-10-16T14:15:25;6.70;;;3.80;;
75554;SDS011;64138;53.124;18.032;2022-10-16T14:17:51;5.70;;;4.20;;
75554;SDS011;64138;53.124;18.032;2022-10-16T14:20:20;6.70;;;4.00;;
75554;SDS011;64138;53.124;18.032;2022-10-16T14:22:48;7.10;;;4.10;;
75554;SDS011;64138;53.124;18.032;2022-10-16T14:25:26;7.40;;;4.20;;
75554;SDS011;64138;53.124;18.032;2022-10-16T14:30:48;7.70;;;3.50;;
75554;SDS011;64138;53.124;18.032;2022-10-16T14:33:20;6.50;;;3.70;;
75554;SDS011;64138;53.124;18.032;2022-10-16T14:35:58;7.90;;;4.00;;
75554;SDS011;64138;53.124;18.032;2022-10-16T14:38:27;7.10;;;4.20;;
75554;SDS011;64138;53.124;18.032;2022-10-16T14:40:54;6.00;;;4.00;;
75554;SDS011;64138;53.124;18.032;2022-10-16T14:43:39;6.50;;;4.10;;
75554;SDS011;64138;53.124;18.032;2022-10-16T14:46:11;6.90;;;4.00;;
75554;SDS011;64138;53.124;18.032;2022-10-16T14:48:49;6.90;;;4.10;;
75554;SDS011;64138;53.124;18.032;2022-10-16T14:51:17;8.60;;;4.40;;
75554;SDS011;64138;53.124;18.032;2022-10-16T14:53:45;6.60;;;4.20;;
75554;SDS011;64138;53.124;18.032;2022-10-16T14:56:22;6.30;;;3.70;;
75554;SDS011;64138;53.124;18.032;2022-10-16T14:58:50;8.10;;;4.80;;
75554;SDS011;64138;53.124;18.032;2022-10-16T15:01:18;6.90;;;4.10;;
75554;SDS011;64138;53.124;18.032;2022-10-16T15:03:44;6.50;;;3.60;;
75554;SDS011;64138;53.124;18.032;2022-10-16T15:06:11;6.60;;;3.80;;
75554;SDS011;64138;53.124;18.032;2022-10-16T15:08:42;5.50;;;3.80;;
75554;SDS011;64138;53.124;18.032;2022-10-16T15:11:18;6.50;;;3.90;;
75554;SDS011;64138;53.124;18.032;2022-10-16T15:13:45;7.50;;;4.20;;
75554;SDS011;64138;53.124;18.032;2022-10-16T15:16:13;6.30;;;4.00;;
75554;SDS011;64138;53.124;18.032;2022-10-16T15:18:41;9.00;;;4.00;;
75554;SDS011;64138;53.124;18.032;2022-10-16T15:21:08;6.30;;;4.50;;
75554;SDS011;64138;53.124;18.032;2022-10-16T15:23:37;10.00;;;3.90;;
75554;SDS011;64138;53.124;18.032;2022-10-16T15:26:04;7.10;;;4.10;;
75554;SDS011;64138;53.124;18.032;2022-10-16T15:28:31;5.70;;;3.50;;
75554;SDS011;64138;53.124;18.032;2022-10-16T15:30:57;6.90;;;3.70;;
75554;SDS011;64138;53.124;18.032;2022-10-16T15:33:25;5.20;;;3.60;;
75554;SDS011;64138;53.124;18.032;2022-10-16T15:35:59;7.30;;;3.70;;
75554;SDS011;64138;53.124;18.032;2022-10-16T15:38:26;6.00;;;3.70;;
75554;SDS011;64138;53.124;18.032;2022-10-16T15:40:54;6.50;;;3.90;;
75554;SDS011;64138;53.124;18.032;2022-10-16T15:43:20;6.00;;;4.20;;
75554;SDS011;64138;53.124;18.032;2022-10-16T15:46:09;6.20;;;3.40;;
75554;SDS011;64138;53.124;18.032;2022-10-16T15:48:36;6.40;;;3.40;;
75554;SDS011;64138;53.124;18.032;2022-10-16T15:51:04;5.90;;;3.90;;
75554;SDS011;64138;53.124;18.032;2022-10-16T15:53:31;9.70;;;3.80;;
75554;SDS011;64138;53.124;18.032;2022-10-16T15:56:00;7.60;;;4.30;;
75554;SDS011;64138;53.124;18.032;2022-10-16T15:58:28;10.20;;;4.30;;
75554;SDS011;64138;53.124;18.032;2022-10-16T16:00:56;9.90;;;3.90;;
75554;SDS011;64138;53.124;18.032;2022-10-16T16:03:24;7.40;;;4.30;;
75554;SDS011;64138;53.124;18.032;2022-10-16T16:05:50;10.90;;;5.30;;
75554;SDS011;64138;53.124;18.032;2022-10-16T16:08:17;10.10;;;4.50;;
75554;SDS011;64138;53.124;18.032;2022-10-16T16:10:44;12.80;;;10.40;;
75554;SDS011;64138;53.124;18.032;2022-10-16T16:13:11;7.80;;;5.70;;
75554;SDS011;64138;53.124;18.032;2022-10-16T16:15:40;14.80;;;11.10;;
75554;SDS011;64138;53.124;18.032;2022-10-16T16:18:07;13.40;;;9.50;;
75554;SDS011;64138;53.124;18.032;2022-10-16T16:20:35;19.10;;;11.90;;
75554;SDS011;64138;53.124;18.032;2022-10-16T16:23:02;9.10;;;5.80;;
75554;SDS011;64138;53.124;18.032;2022-10-16T16:25:28;11.60;;;5.60;;
75554;SDS011;64138;53.124;18.032;2022-10-16T16:27:55;17.80;;;11.30;;
75554;SDS011;64138;53.124;18.032;2022-10-16T16:30:21;16.40;;;10.90;;
75554;SDS011;64138;53.124;18.032;2022-10-16T16:32:48;12.20;;;7.50;;